Time;durP1;ratioP1;P1;durP2;ratioP2;P2;SDS_P1;SDS_P2;PMS_P1;PMS_P2;Temp;Humidity;BMP_temperature;BMP_pressure;BME280_temperature;BME280_humidity;BME280_pressure;Samples;Min_cycle;Max_cycle;Signal;HPM_P1;HPM_P2
2023/04/26 00:02:31;;;;;;;;;;;;;;;7.80;84.74;99688.80;104379;276;96383;-55
2023/04/26 00:05:03;;;;;;;;;;;;;;;7.78;84.73;99687.48;104396;276;97731;-57
2023/04/26 00:07:37;;;;;;;;;;;;;;;7.73;84.72;99689.42;104783;276;121252;-56
2023/04/26 00:10:11;;;;;;;;;;;;;;;7.71;84.74;99691.88;104413;276;105634;-54
2023/04/26 00:12:43;;;;;;;;;;;;;;;7.59;84.85;99694.00;104400;276;113347;-54
2023/04/26 00:15:15;;;;;;;;;;;;;;;7.54;84.95;99701.73;104855;276;97105;-56
2023/04/26 00:17:47;;;;;;;;;;;;;;;7.42;85.16;99703.23;104829;276;97985;-56
2023/04/26 00:20:19;;;;;;;;;;;;;;;7.38;85.35;99708.25;104428;276;120972;-56
2023/04/26 00:22:52;;;;;;;;;;;;;;;7.36;85.17;99714.15;104409;276;105500;-56
2023/04/26 00:25:24;;;;;;;;;;;;;;;7.31;85.40;99716.84;104834;276;113404;-56
2023/04/26 00:27:56;;;;;;;;;;;;;;;7.28;85.23;99712.47;104830;276;95882;-56
2023/04/26 00:30:28;;;;;;;;;;;;;;;7.30;85.51;99715.43;104420;276;98162;-57
2023/04/26 00:33:00;;;;;;;;;;;;;;;7.30;85.23;99716.05;104418;276;120889;-57
2023/04/26 00:35:33;;;;;;;;;;;;;;;7.23;85.47;99726.02;104428;276;106075;-57
2023/04/26 00:38:05;;;;;;;;;;;;;;;7.20;85.52;99726.27;104771;308;114101;-57
2023/04/26 00:40:37;;;;;;;;;;;;;;;7.18;85.58;99731.05;104392;276;97834;-55
2023/04/26 00:43:09;;;;;;;;;;;;;;;7.21;85.47;99734.85;104422;276;96718;-54
2023/04/26 00:45:41;;;;;;;;;;;;;;;7.24;85.44;99732.70;104400;276;121341;-56
2023/04/26 00:48:14;;;;;;;;;;;;;;;7.27;85.51;99738.20;104822;276;104496;-56
2023/04/26 00:50:47;;;;;;;;;;;;;;;7.32;85.38;99739.35;104429;276;114288;-55
2023/04/26 00:53:19;;;;;;;;;;;;;;;7.39;85.51;99738.86;104826;276;95185;-55
2023/04/26 00:55:52;;;;;;;;;;;;;;;7.43;85.57;99741.15;104847;276;95154;-54
2023/04/26 00:58:24;;;;;;;;;;;;;;;7.45;85.49;99742.42;104413;276;121052;-54
2023/04/26 01:00:57;;;;;;;;;;;;;;;7.46;85.48;99740.58;104420;276;105705;-56
2023/04/26 01:03:29;;;;;;;;;;;;;;;7.47;85.42;99743.79;104386;276;114544;-56
2023/04/26 01:06:01;;;;;;;;;;;;;;;7.52;85.33;99743.36;104406;276;96653;-54
2023/04/26 01:08:34;;;;;;;;;;;;;;;7.54;85.42;99741.35;104421;276;97940;-54
2023/04/26 01:11:06;;;;;;;;;;;;;;;7.60;85.51;99744.58;104418;276;119979;-56
2023/04/26 01:13:38;;;;;;;;;;;;;;;7.61;85.52;99737.41;104423;276;104770;-55
2023/04/26 01:16:11;;;;;;;;;;;;;;;7.59;85.33;99741.14;104820;276;113327;-57
2023/04/26 01:18:43;;;;;;;;;;;;;;;7.58;85.29;99743.31;104818;276;95639;-56
2023/04/26 01:21:19;;;;;;;;;;;;;;;7.57;85.25;99745.58;104397;276;98074;-56
2023/04/26 01:23:52;;;;;;;;;;;;;;;7.51;85.22;99747.61;104404;276;119711;-55
2023/04/26 01:26:24;;;;;;;;;;;;;;;7.46;85.32;99751.34;104424;276;104866;-54
2023/04/26 01:28:56;;;;;;;;;;;;;;;7.43;85.43;99753.11;103935;276;359776;-57
2023/04/26 01:31:28;;;;;;;;;;;;;;;7.43;85.29;99751.66;104322;292;96470;-57
2023/04/26 01:34:00;;;;;;;;;;;;;;;7.39;85.34;99752.88;104433;276;98113;-56
2023/04/26 01:36:32;;;;;;;;;;;;;;;7.35;85.33;99754.31;104458;276;120261;-56
2023/04/26 01:39:04;;;;;;;;;;;;;;;7.31;85.30;99755.32;104817;276;104582;-54
2023/04/26 01:41:36;;;;;;;;;;;;;;;7.28;85.20;99757.05;104843;276;114643;-54
2023/04/26 01:44:08;;;;;;;;;;;;;;;7.22;85.00;99756.40;104126;277;94841;-57
2023/04/26 01:46:41;;;;;;;;;;;;;;;7.20;85.28;99758.73;104774;276;97628;-57
2023/04/26 01:49:13;;;;;;;;;;;;;;;7.13;85.17;99758.16;104413;276;119577;-55
2023/04/26 01:51:45;;;;;;;;;;;;;;;7.09;85.41;99754.34;104836;276;105215;-55
2023/04/26 01:54:17;;;;;;;;;;;;;;;7.05;85.25;99755.91;104789;276;114954;-56
2023/04/26 01:56:49;;;;;;;;;;;;;;;6.96;85.08;99753.09;104378;276;94971;-56
2023/04/26 01:59:21;;;;;;;;;;;;;;;6.83;85.02;99748.34;104441;276;98029;-56
2023/04/26 02:01:53;;;;;;;;;;;;;;;6.76;85.01;99750.14;104401;276;122001;-56
2023/04/26 02:04:26;;;;;;;;;;;;;;;6.66;84.91;99750.98;104791;276;105097;-54
2023/04/26 02:06:58;;;;;;;;;;;;;;;6.58;85.19;99756.27;104410;276;114970;-54
2023/04/26 02:09:30;;;;;;;;;;;;;;;6.54;85.35;99755.44;104399;276;95479;-57
2023/04/26 02:12:02;;;;;;;;;;;;;;;6.55;85.33;99756.60;104411;276;97902;-57
2023/04/26 02:14:34;;;;;;;;;;;;;;;6.54;85.64;99757.48;104763;276;120017;-57
2023/04/26 02:17:07;;;;;;;;;;;;;;;6.57;85.84;99766.20;104778;276;103765;-57
2023/04/26 02:19:40;;;;;;;;;;;;;;;6.59;86.06;99768.80;104417;280;114465;-54
2023/04/26 02:22:12;;;;;;;;;;;;;;;6.66;86.24;99770.41;104366;264;96876;-54
2023/04/26 02:24:44;;;;;;;;;;;;;;;6.72;86.53;99768.33;104825;276;97495;-54
2023/04/26 02:27:16;;;;;;;;;;;;;;;6.76;86.49;99770.36;104399;276;120782;-54
2023/04/26 02:29:49;;;;;;;;;;;;;;;6.81;86.59;99769.20;104424;276;104957;-57
2023/04/26 02:32:21;;;;;;;;;;;;;;;6.91;86.68;99768.20;104814;276;114607;-57
2023/04/26 02:34:53;;;;;;;;;;;;;;;6.97;86.61;99768.11;104827;276;97208;-56
2023/04/26 02:37:25;;;;;;;;;;;;;;;6.99;86.49;99768.22;104823;276;96376;-56
2023/04/26 02:39:57;;;;;;;;;;;;;;;6.98;86.48;99761.72;104421;276;121181;-56
2023/04/26 02:42:30;;;;;;;;;;;;;;;6.98;86.63;99764.19;104410;276;105557;-56
2023/04/26 02:45:02;;;;;;;;;;;;;;;7.01;86.71;99763.88;104783;276;114516;-54
2023/04/26 02:47:35;;;;;;;;;;;;;;;7.07;86.62;99764.29;104408;276;96409;-54
2023/04/26 02:50:09;;;;;;;;;;;;;;;7.07;86.55;99767.23;104446;276;96799;-57
2023/04/26 02:52:41;;;;;;;;;;;;;;;7.08;86.52;99769.27;104425;276;120132;-64
2023/04/26 02:55:14;;;;;;;;;;;;;;;7.07;86.47;99767.48;104732;276;104600;-54
2023/04/26 02:57:46;;;;;;;;;;;;;;;7.12;86.50;99763.98;104755;276;114037;-54
2023/04/26 03:00:18;;;;;;;;;;;;;;;7.11;86.37;99765.42;104346;276;96181;-57
2023/04/26 03:02:51;;;;;;;;;;;;;;;7.09;86.26;99766.22;104773;276;97819;-57
2023/04/26 03:05:23;;;;;;;;;;;;;;;7.06;86.11;99768.14;104361;276;118964;-56
2023/04/26 03:07:55;;;;;;;;;;;;;;;7.07;86.04;99767.98;104810;276;104509;-56
2023/04/26 03:10:27;;;;;;;;;;;;;;;7.10;85.93;99771.83;104779;276;114534;-58
2023/04/26 03:13:00;;;;;;;;;;;;;;;7.00;85.79;99769.77;104768;276;96628;-57
2023/04/26 03:15:32;;;;;;;;;;;;;;;6.94;85.83;99771.27;104762;276;96240;-56
2023/04/26 03:18:04;;;;;;;;;;;;;;;6.94;85.73;99767.30;104296;280;121025;-56
2023/04/26 03:20:36;;;;;;;;;;;;;;;6.88;85.52;99772.24;104339;264;105920;-56
2023/04/26 03:23:08;;;;;;;;;;;;;;;6.76;85.18;99768.48;104312;276;114246;-57
2023/04/26 03:25:40;;;;;;;;;;;;;;;6.64;85.08;99769.60;104298;276;93388;-55
2023/04/26 03:28:13;;;;;;;;;;;;;;;6.48;84.91;99771.63;104338;276;97905;-55
2023/04/26 03:30:45;;;;;;;;;;;;;;;6.28;84.68;99773.61;104299;276;121009;-54
2023/04/26 03:33:17;;;;;;;;;;;;;;;6.18;84.71;99780.54;104317;276;106388;-54
2023/04/26 03:35:50;;;;;;;;;;;;;;;6.08;84.66;99786.59;104292;276;115501;-56
2023/04/26 03:38:23;;;;;;;;;;;;;;;5.96;84.67;99787.96;104311;276;93110;-57
2023/04/26 03:40:55;;;;;;;;;;;;;;;5.85;84.54;99790.27;104350;276;97681;-55
2023/04/26 03:43:28;;;;;;;;;;;;;;;5.73;84.45;99792.67;104322;276;119587;-56
2023/04/26 03:46:00;;;;;;;;;;;;;;;5.60;84.46;99798.07;104347;276;103587;-55
2023/04/26 03:48:33;;;;;;;;;;;;;;;5.53;84.53;99794.45;104303;276;113883;-55
2023/04/26 03:51:05;;;;;;;;;;;;;;;5.44;84.60;99797.59;104318;276;92655;-56
2023/04/26 03:53:37;;;;;;;;;;;;;;;5.43;84.57;99794.72;104340;276;97694;-56
2023/04/26 03:56:10;;;;;;;;;;;;;;;5.34;84.41;99800.79;104789;276;119758;-57
2023/04/26 03:58:43;;;;;;;;;;;;;;;5.20;84.48;99804.77;104821;276;105988;-56
2023/04/26 04:01:15;;;;;;;;;;;;;;;5.17;84.61;99804.34;104305;276;112535;-56
2023/04/26 04:03:47;;;;;;;;;;;;;;;5.23;84.76;99807.40;104789;276;91207;-56
2023/04/26 04:06:20;;;;;;;;;;;;;;;5.26;84.93;99806.19;104314;276;98032;-57
2023/04/26 04:08:52;;;;;;;;;;;;;;;5.32;84.84;99810.87;104290;276;120473;-55
2023/04/26 04:11:25;;;;;;;;;;;;;;;5.45;84.84;99809.80;104328;276;104555;-54
2023/04/26 04:13:57;;;;;;;;;;;;;;;5.57;84.87;99810.81;104772;276;113794;-55
2023/04/26 04:16:29;;;;;;;;;;;;;;;5.77;84.81;99809.91;104306;276;94523;-55
2023/04/26 04:19:02;;;;;;;;;;;;;;;5.98;84.65;99807.34;104333;276;97542;-55
2023/04/26 04:21:34;;;;;;;;;;;;;;;6.36;84.85;99801.48;104253;276;120862;-55
2023/04/26 04:24:07;;;;;;;;;;;;;;;6.76;84.69;99803.60;104305;276;105720;-55
2023/04/26 04:26:40;;;;;;;;;;;;;;;7.09;84.32;99801.96;104782;276;113339;-56
2023/04/26 04:29:12;;;;;;;;;;;;;;;7.69;84.50;99799.50;104295;276;96202;-55
2023/04/26 04:31:44;;;;;;;;;;;;;;;8.48;83.91;99796.70;104308;276;98226;-55
2023/04/26 04:34:16;;;;;;;;;;;;;;;9.50;82.82;99803.47;104313;276;119601;-57
2023/04/26 04:36:49;;;;;;;;;;;;;;;10.49;82.34;99800.02;104801;276;106122;-57
2023/04/26 04:39:21;;;;;;;;;;;;;;;11.93;81.14;99796.33;104312;276;113389;-57
2023/04/26 04:41:53;;;;;;;;;;;;;;;12.79;79.70;99795.80;104743;276;95213;-57
2023/04/26 04:44:25;;;;;;;;;;;;;;;13.13;78.46;99801.61;104814;276;96412;-57
2023/04/26 04:46:57;;;;;;;;;;;;;;;13.63;77.52;99803.15;104336;276;119806;-57
2023/04/26 04:49:30;;;;;;;;;;;;;;;14.20;75.59;99803.85;104374;276;105763;-58
2023/04/26 04:52:02;;;;;;;;;;;;;;;14.62;74.17;99801.98;104794;276;113546;-58
2023/04/26 04:54:35;;;;;;;;;;;;;;;14.93;72.31;99801.63;104812;276;93837;-56
2023/04/26 04:57:07;;;;;;;;;;;;;;;15.09;71.74;99807.21;104392;276;97784;-56
2023/04/26 04:59:39;;;;;;;;;;;;;;;15.66;71.00;99807.61;104387;276;120238;-58
2023/04/26 05:02:11;;;;;;;;;;;;;;;16.02;70.30;99807.69;104764;276;105155;-57
2023/04/26 05:04:43;;;;;;;;;;;;;;;16.26;68.51;99808.98;104798;276;115416;-56
2023/04/26 05:07:17;;;;;;;;;;;;;;;15.67;67.62;99815.08;104795;276;94837;-56
2023/04/26 05:09:49;;;;;;;;;;;;;;;14.66;67.34;99823.29;104393;276;95958;-56
2023/04/26 05:12:22;;;;;;;;;;;;;;;13.80;67.08;99830.00;104377;276;120899;-55
2023/04/26 05:14:54;;;;;;;;;;;;;;;13.40;67.11;99834.09;104388;276;106856;-56
2023/04/26 05:17:26;;;;;;;;;;;;;;;12.65;66.98;99838.42;104342;276;113079;-55
2023/04/26 05:19:58;;;;;;;;;;;;;;;12.21;67.05;99841.79;104771;276;95119;-56
2023/04/26 05:22:31;;;;;;;;;;;;;;;11.89;67.29;99845.67;104366;276;96455;-56
2023/04/26 05:25:04;;;;;;;;;;;;;;;12.17;67.29;99847.23;104799;309;120850;-55
2023/04/26 05:27:36;;;;;;;;;;;;;;;11.83;67.38;99847.21;104369;276;103691;-55
2023/04/26 05:30:11;;;;;;;;;;;;;;;12.76;67.47;99845.48;104377;276;114652;-56
2023/04/26 05:32:43;;;;;;;;;;;;;;;14.26;66.65;99845.20;104803;280;93569;-56
2023/04/26 05:35:15;;;;;;;;;;;;;;;15.81;65.40;99842.24;104374;276;98120;-59
2023/04/26 05:37:47;;;;;;;;;;;;;;;17.22;64.60;99842.86;104342;276;121057;-58
2023/04/26 05:40:20;;;;;;;;;;;;;;;18.26;63.46;99848.36;104370;276;105522;-57
2023/04/26 05:42:52;;;;;;;;;;;;;;;19.22;62.26;99845.59;104332;276;115019;-58
2023/04/26 05:45:25;;;;;;;;;;;;;;;20.09;60.88;99841.23;104800;280;93802;-58
2023/04/26 05:47:57;;;;;;;;;;;;;;;20.72;58.82;99837.88;104356;276;96156;-58
2023/04/26 05:50:30;;;;;;;;;;;;;;;21.09;58.22;99836.42;104375;276;120589;-59
2023/04/26 05:53:02;;;;;;;;;;;;;;;21.39;57.28;99837.35;104381;276;105970;-58
2023/04/26 05:55:34;;;;;;;;;;;;;;;21.69;56.24;99833.57;104348;276;113411;-57
2023/04/26 05:58:06;;;;;;;;;;;;;;;22.16;54.50;99837.98;104389;276;91968;-57
2023/04/26 06:00:39;;;;;;;;;;;;;;;22.56;53.00;99842.55;104384;276;96668;-55
2023/04/26 06:03:12;;;;;;;;;;;;;;;22.60;52.20;99841.60;104381;276;119557;-55
2023/04/26 06:05:44;;;;;;;;;;;;;;;23.16;51.42;99834.49;104785;276;106245;-57
2023/04/26 06:08:16;;;;;;;;;;;;;;;23.59;50.99;99831.95;104353;276;114045;-57
2023/04/26 06:10:48;;;;;;;;;;;;;;;23.66;50.31;99836.58;104782;276;93738;-56
2023/04/26 06:13:21;;;;;;;;;;;;;;;24.09;49.14;99832.70;104358;276;97362;-56
2023/04/26 06:15:54;;;;;;;;;;;;;;;24.49;48.01;99836.54;104326;276;118346;-57
2023/04/26 06:18:26;;;;;;;;;;;;;;;24.74;46.63;99837.23;104780;265;104539;-57
2023/04/26 06:20:58;;;;;;;;;;;;;;;25.01;46.39;99837.16;104310;276;114906;-56
2023/04/26 06:23:33;;;;;;;;;;;;;;;25.13;45.18;99831.17;104330;276;93452;-56
2023/04/26 06:26:07;;;;;;;;;;;;;;;25.42;43.81;99831.27;104369;276;97303;-57
2023/04/26 06:28:39;;;;;;;;;;;;;;;25.84;43.46;99831.11;104359;276;118609;-57
2023/04/26 06:31:12;;;;;;;;;;;;;;;25.80;43.04;99829.02;104321;276;105290;-56
2023/04/26 06:33:44;;;;;;;;;;;;;;;25.52;42.73;99826.61;104337;276;114485;-56
2023/04/26 06:36:17;;;;;;;;;;;;;;;25.26;41.87;99828.29;104339;276;93177;-56
2023/04/26 06:38:49;;;;;;;;;;;;;;;24.65;41.29;99827.66;104357;276;97174;-58
2023/04/26 06:41:22;;;;;;;;;;;;;;;23.35;41.10;99837.44;104316;276;121562;-59
2023/04/26 06:43:54;;;;;;;;;;;;;;;23.15;41.55;99845.70;104094;278;106276;-56
2023/04/26 06:46:27;;;;;;;;;;;;;;;23.83;40.98;99842.00;104126;278;112430;-56
2023/04/26 06:49:00;;;;;;;;;;;;;;;24.82;39.98;99840.45;104140;276;94183;-58
2023/04/26 06:51:33;;;;;;;;;;;;;;;25.08;38.83;99841.04;104213;276;97130;-58
2023/04/26 06:54:08;;;;;;;;;;;;;;;24.63;38.08;99842.34;104356;276;120852;-56
2023/04/26 06:56:42;;;;;;;;;;;;;;;23.80;38.24;99842.85;104379;276;104482;-56
2023/04/26 06:59:15;;;;;;;;;;;;;;;23.51;38.27;99846.13;104085;276;114563;-57
2023/04/26 07:01:48;;;;;;;;;;;;;;;22.75;38.30;99846.80;104777;276;95116;-57
2023/04/26 07:04:21;;;;;;;;;;;;;;;21.66;38.42;99850.00;104446;276;97331;-56
2023/04/26 07:06:53;;;;;;;;;;;;;;;21.58;38.88;99842.36;104442;276;119909;-58
2023/04/26 07:09:27;;;;;;;;;;;;;;;21.88;38.73;99844.38;104429;276;105347;-58
2023/04/26 07:12:00;;;;;;;;;;;;;;;23.39;38.36;99846.50;104396;276;113303;-58
2023/04/26 07:14:34;;;;;;;;;;;;;;;24.55;37.45;99849.34;104668;276;93147;-57
2023/04/26 07:17:07;;;;;;;;;;;;;;;23.80;36.74;99853.88;104831;276;96395;-56
2023/04/26 07:19:40;;;;;;;;;;;;;;;23.93;37.09;99853.28;104355;276;120765;-55
2023/04/26 07:22:13;;;;;;;;;;;;;;;23.00;36.33;99857.50;104340;276;104980;-55
2023/04/26 07:24:45;;;;;;;;;;;;;;;21.64;36.48;99853.14;104788;276;114322;-55
2023/04/26 07:27:17;;;;;;;;;;;;;;;22.21;37.54;99858.86;104291;276;93711;-55
2023/04/26 07:29:53;;;;;;;;;;;;;;;22.76;36.17;99854.13;104822;276;97274;-56
2023/04/26 07:32:25;;;;;;;;;;;;;;;20.91;36.14;99860.16;104275;276;120193;-56
2023/04/26 07:34:57;;;;;;;;;;;;;;;19.32;37.03;99869.49;104317;265;103964;-55
2023/04/26 07:37:30;;;;;;;;;;;;;;;18.24;38.73;99876.89;104328;264;113828;-55
2023/04/26 07:40:03;;;;;;;;;;;;;;;19.32;39.56;99869.80;104348;276;93862;-56
2023/04/26 07:42:36;;;;;;;;;;;;;;;21.21;39.26;99866.23;104321;276;97939;-56
2023/04/26 07:45:10;;;;;;;;;;;;;;;22.67;38.28;99864.85;104313;276;120037;-55
2023/04/26 07:47:42;;;;;;;;;;;;;;;24.09;37.14;99866.67;104339;276;104572;-55
2023/04/26 07:50:15;;;;;;;;;;;;;;;24.07;36.00;99864.27;104358;272;114446;-56
2023/04/26 07:52:47;;;;;;;;;;;;;;;22.19;35.57;99873.09;104338;276;93524;-56
2023/04/26 07:55:20;;;;;;;;;;;;;;;20.85;36.26;99875.27;104376;276;96392;-57
2023/04/26 07:57:52;;;;;;;;;;;;;;;21.44;36.54;99875.64;104800;276;119309;-57
2023/04/26 08:00:25;;;;;;;;;;;;;;;21.82;36.36;99875.52;104343;276;103963;-59
2023/04/26 08:02:58;;;;;;;;;;;;;;;20.66;35.86;99879.77;104314;276;115033;-59
2023/04/26 08:05:30;;;;;;;;;;;;;;;19.04;36.46;99885.74;104326;276;93935;-55
2023/04/26 08:08:02;;;;;;;;;;;;;;;17.88;37.61;99891.85;104383;276;98051;-55
2023/04/26 08:10:35;;;;;;;;;;;;;;;16.89;37.77;99892.80;104342;276;120688;-55
2023/04/26 08:13:07;;;;;;;;;;;;;;;16.24;38.75;99895.94;104354;276;105402;-55
2023/04/26 08:15:40;;;;;;;;;;;;;;;17.35;40.17;99898.11;104314;276;113923;-56
2023/04/26 08:18:12;;;;;;;;;;;;;;;18.71;39.59;99894.62;104291;276;94531;-57
2023/04/26 08:20:44;;;;;;;;;;;;;;;20.13;39.47;99888.17;104322;276;97388;-56
2023/04/26 08:23:18;;;;;;;;;;;;;;;21.52;38.58;99882.27;104350;276;120508;-57
2023/04/26 08:25:50;;;;;;;;;;;;;;;22.60;37.74;99884.42;104354;276;105980;-58
2023/04/26 08:28:22;;;;;;;;;;;;;;;23.43;35.37;99883.74;104768;280;114600;-58
2023/04/26 08:30:54;;;;;;;;;;;;;;;22.20;35.07;99882.86;104779;276;94335;-58
2023/04/26 08:33:27;;;;;;;;;;;;;;;20.63;35.19;99886.56;104793;276;96371;-58
2023/04/26 08:36:01;;;;;;;;;;;;;;;19.07;35.62;99897.31;104785;276;121114;-56
2023/04/26 08:38:35;;;;;;;;;;;;;;;17.85;36.28;99898.94;104413;276;105843;-56
2023/04/26 08:41:10;;;;;;;;;;;;;;;16.84;37.38;99896.80;104378;276;113614;-58
2023/04/26 08:43:43;;;;;;;;;;;;;;;16.46;38.48;99900.94;104362;276;94352;-57
2023/04/26 08:46:19;;;;;;;;;;;;;;;17.91;38.63;99894.95;104753;276;98868;-58
2023/04/26 08:49:00;;;;;;;;;;;;;;;18.18;38.11;99893.47;104789;276;120173;-57
2023/04/26 08:51:33;;;;;;;;;;;;;;;17.81;37.20;99890.70;104790;276;106001;-58
2023/04/26 08:54:06;;;;;;;;;;;;;;;17.07;37.39;99896.11;104379;276;114579;-55
2023/04/26 08:56:39;;;;;;;;;;;;;;;16.39;38.23;99900.82;104388;276;95080;-55
2023/04/26 08:59:12;;;;;;;;;;;;;;;16.17;38.48;99901.45;104382;276;97541;-56
2023/04/26 09:01:44;;;;;;;;;;;;;;;15.84;39.14;99905.64;104394;276;119448;-55
2023/04/26 09:04:17;;;;;;;;;;;;;;;16.39;39.67;99906.02;104410;269;104902;-55
2023/04/26 09:06:50;;;;;;;;;;;;;;;17.74;39.87;99898.17;104331;276;114904;-55
2023/04/26 09:09:23;;;;;;;;;;;;;;;17.75;38.84;99902.08;104382;276;94047;-58
2023/04/26 09:12:00;;;;;;;;;;;;;;;17.28;38.29;99908.87;104400;276;95929;-58
2023/04/26 09:14:32;;;;;;;;;;;;;;;16.36;38.30;99921.02;104782;280;118544;-57
2023/04/26 09:17:04;;;;;;;;;;;;;;;15.56;38.43;99927.48;104800;276;106168;-56
2023/04/26 09:19:38;;;;;;;;;;;;;;;14.99;38.84;99934.16;104376;276;114277;-57
2023/04/26 09:22:10;;;;;;;;;;;;;;;15.27;39.46;99936.19;104360;276;93967;-57
2023/04/26 09:24:52;;;;;;;;;;;;;;;15.67;40.29;99932.15;104800;276;97729;-57
2023/04/26 09:27:32;;;;;;;;;;;;;;;15.44;39.44;99937.26;103978;276;532546;-57
2023/04/26 09:30:08;;;;;;;;;;;;;;;15.02;39.42;99943.15;104372;276;106191;-56
2023/04/26 09:32:54;;;;;;;;;;;;;;;14.75;39.61;99945.70;104801;276;115123;-56
2023/04/26 09:35:29;;;;;;;;;;;;;;;14.40;39.67;99949.58;104355;276;94523;-56
2023/04/26 09:38:03;;;;;;;;;;;;;;;14.23;40.08;99948.64;104403;276;96753;-56
2023/04/26 09:40:37;;;;;;;;;;;;;;;13.95;40.41;99942.95;104805;276;121387;-56
2023/04/26 09:43:11;;;;;;;;;;;;;;;13.55;40.61;99948.11;104812;276;103141;-56
2023/04/26 09:45:49;;;;;;;;;;;;;;;13.38;40.69;99946.85;104338;276;114131;-56
2023/04/26 09:48:24;;;;;;;;;;;;;;;13.25;41.05;99948.60;104369;276;93022;-56
2023/04/26 09:50:58;;;;;;;;;;;;;;;13.21;41.31;99950.02;104355;276;97792;-55
2023/04/26 09:53:36;;;;;;;;;;;;;;;13.06;41.33;99955.78;104337;276;121403;-55
2023/04/26 09:56:13;;;;;;;;;;;;;;;12.84;41.58;99957.11;104350;276;105853;-55
2023/04/26 09:58:59;;;;;;;;;;;;;;;12.61;41.84;99956.45;104353;276;114329;-55
2023/04/26 10:01:32;;;;;;;;;;;;;;;12.40;42.19;99959.28;104776;276;94228;-55
2023/04/26 10:04:04;;;;;;;;;;;;;;;12.23;42.51;99956.44;104367;276;97880;-57
2023/04/26 10:06:36;;;;;;;;;;;;;;;12.15;42.45;99955.75;104360;276;119808;-56
2023/04/26 10:09:09;;;;;;;;;;;;;;;12.12;42.75;99956.96;104775;276;106072;-55
2023/04/26 10:11:41;;;;;;;;;;;;;;;12.01;43.66;99956.84;104746;276;114674;-55
2023/04/26 10:14:14;;;;;;;;;;;;;;;12.15;44.00;99956.13;104367;276;93427;-56
2023/04/26 10:16:47;;;;;;;;;;;;;;;12.49;43.67;99960.64;104796;276;98204;-56
2023/04/26 10:19:19;;;;;;;;;;;;;;;12.73;43.35;99957.15;104347;276;120500;-55
2023/04/26 10:21:54;;;;;;;;;;;;;;;12.82;42.85;99957.33;104765;276;104908;-55
2023/04/26 10:24:26;;;;;;;;;;;;;;;12.91;42.78;99956.29;104309;276;113493;-55
2023/04/26 10:27:00;;;;;;;;;;;;;;;12.81;42.24;99957.86;104776;276;93182;-55
2023/04/26 10:30:06;;;;;;;;;;;;;;;12.53;42.28;99958.05;104112;276;97705;-55
2023/04/26 10:33:16;;;;;;;;;;;;;;;11.97;42.18;99964.80;104270;276;120932;-55
2023/04/26 10:36:06;;;;;;;;;;;;;;;11.75;42.57;99966.83;104324;276;105086;-55
2023/04/26 10:38:39;;;;;;;;;;;;;;;11.75;42.38;99965.79;104314;276;114077;-56
2023/04/26 10:41:35;;;;;;;;;;;;;;;11.83;42.82;99969.80;104312;276;94828;-56
2023/04/26 10:44:33;;;;;;;;;;;;;;;12.06;42.94;99971.20;104292;276;97239;-57
2023/04/26 10:47:07;;;;;;;;;;;;;;;12.36;43.05;99969.25;104779;276;120852;-56
2023/04/26 10:49:48;;;;;;;;;;;;;;;12.72;43.03;99970.41;104778;276;105483;-56
2023/04/26 10:52:21;;;;;;;;;;;;;;;12.99;42.84;99971.19;104798;276;113137;-56
2023/04/26 10:54:55;;;;;;;;;;;;;;;13.15;42.20;99973.68;104342;276;94308;-58
2023/04/26 10:57:48;;;;;;;;;;;;;;;13.09;41.38;99975.29;104307;276;97237;-58
2023/04/26 11:00:31;;;;;;;;;;;;;;;13.11;41.92;99980.55;104780;276;119203;-56
2023/04/26 11:03:12;;;;;;;;;;;;;;;12.93;41.48;99979.64;104377;276;106328;-56
2023/04/26 11:06:06;;;;;;;;;;;;;;;13.02;41.73;99979.69;104789;276;114719;-54
2023/04/26 11:08:38;;;;;;;;;;;;;;;13.07;41.86;99984.34;104398;276;94838;-55
2023/04/26 11:11:12;;;;;;;;;;;;;;;13.07;42.27;99982.14;104782;276;96361;-58
2023/04/26 11:13:45;;;;;;;;;;;;;;;13.04;42.46;99989.20;104826;276;120418;-55
2023/04/26 11:16:18;;;;;;;;;;;;;;;12.92;42.68;99993.07;104375;276;105372;-55
2023/04/26 11:18:54;;;;;;;;;;;;;;;12.87;42.09;99993.88;104321;276;113781;-57
2023/04/26 11:21:27;;;;;;;;;;;;;;;12.66;42.28;99996.90;104786;276;94491;-57
2023/04/26 11:23:59;;;;;;;;;;;;;;;12.50;42.24;99992.23;104311;277;97550;-55
2023/04/26 11:26:35;;;;;;;;;;;;;;;12.54;42.21;99992.98;104299;277;120148;-55
2023/04/26 11:29:12;;;;;;;;;;;;;;;12.91;42.49;99991.87;104784;277;105675;-57
2023/04/26 11:31:44;;;;;;;;;;;;;;;13.45;42.46;99988.38;104295;277;114929;-57
2023/04/26 11:34:16;;;;;;;;;;;;;;;14.02;42.40;99983.96;104271;277;94829;-57
2023/04/26 11:36:48;;;;;;;;;;;;;;;14.62;41.85;99983.48;104292;277;96275;-57
2023/04/26 11:39:24;;;;;;;;;;;;;;;14.82;40.10;99982.28;104288;277;120399;-55
2023/04/26 11:42:06;;;;;;;;;;;;;;;14.75;40.13;99990.46;104286;277;106209;-54
2023/04/26 11:44:40;;;;;;;;;;;;;;;14.48;39.48;99990.83;104293;277;113595;-54
2023/04/26 11:47:12;;;;;;;;;;;;;;;14.35;39.25;99996.13;104296;277;94191;-54
2023/04/26 11:49:46;;;;;;;;;;;;;;;14.13;38.95;99993.73;104309;277;97212;-55
2023/04/26 11:52:18;;;;;;;;;;;;;;;13.81;38.84;99998.17;104779;277;121835;-55
2023/04/26 11:55:02;;;;;;;;;;;;;;;13.38;39.02;100001.05;104786;278;105733;-54
2023/04/26 11:57:35;;;;;;;;;;;;;;;12.87;39.51;100000.17;104746;277;113306;-54
2023/04/26 12:00:13;;;;;;;;;;;;;;;12.68;39.97;100005.24;104319;277;94093;-56
2023/04/26 12:02:49;;;;;;;;;;;;;;;12.69;40.43;100011.28;104314;277;97927;-57
2023/04/26 12:05:25;;;;;;;;;;;;;;;12.65;40.56;100008.63;104052;277;122417;-56
2023/04/26 12:07:59;;;;;;;;;;;;;;;12.90;40.96;100011.05;104304;277;104580;-56
2023/04/26 12:10:38;;;;;;;;;;;;;;;13.08;40.23;100011.80;104331;277;113235;-56
2023/04/26 12:13:13;;;;;;;;;;;;;;;13.12;39.66;100013.92;104281;277;93297;-56
2023/04/26 12:15:46;;;;;;;;;;;;;;;13.06;39.61;100016.40;104802;277;97189;-55
2023/04/26 12:18:18;;;;;;;;;;;;;;;12.63;39.45;100016.21;104749;277;120987;-55
2023/04/26 12:20:57;;;;;;;;;;;;;;;12.43;39.71;100026.25;104292;277;105835;-55
2023/04/26 12:23:36;;;;;;;;;;;;;;;11.94;40.26;100025.05;104782;276;114809;-55
2023/04/26 12:26:10;;;;;;;;;;;;;;;11.73;40.62;100032.86;104386;276;93620;-58
2023/04/26 12:28:43;;;;;;;;;;;;;;;11.58;40.92;100038.42;104391;276;96418;-56
2023/04/26 12:31:15;;;;;;;;;;;;;;;11.51;40.93;100034.66;104401;276;120481;-56
2023/04/26 12:33:47;;;;;;;;;;;;;;;11.36;41.11;100039.94;104411;276;105046;-57
2023/04/26 12:36:20;;;;;;;;;;;;;;;11.26;41.16;100042.40;104389;276;114568;-58
2023/04/26 12:38:52;;;;;;;;;;;;;;;11.54;41.60;100041.03;104049;276;94470;-55
2023/04/26 12:41:24;;;;;;;;;;;;;;;11.82;41.62;100038.42;104399;276;97557;-55
2023/04/26 12:43:57;;;;;;;;;;;;;;;11.90;42.07;100037.22;104385;276;121222;-56
2023/04/26 12:46:29;;;;;;;;;;;;;;;11.97;42.04;100034.98;104397;276;104664;-56
2023/04/26 12:49:02;;;;;;;;;;;;;;;11.96;42.00;100042.52;104056;278;114369;-56
2023/04/26 12:51:34;;;;;;;;;;;;;;;11.92;42.57;100048.80;104363;276;94347;-56
2023/04/26 12:54:06;;;;;;;;;;;;;;;11.83;42.22;100050.03;104416;276;96819;-56
2023/04/26 12:56:42;;;;;;;;;;;;;;;11.81;41.90;100054.98;104411;276;120848;-56
2023/04/26 12:59:14;;;;;;;;;;;;;;;11.65;42.02;100056.55;104413;276;105847;-56
2023/04/26 13:01:47;;;;;;;;;;;;;;;11.53;42.43;100056.77;104768;276;114769;-56
2023/04/26 13:04:19;;;;;;;;;;;;;;;11.40;42.83;100064.29;104805;276;95630;-56
2023/04/26 13:06:52;;;;;;;;;;;;;;;11.37;42.76;100063.66;104392;276;98020;-56
2023/04/26 13:09:24;;;;;;;;;;;;;;;11.35;43.03;100067.34;104786;280;121849;-55
2023/04/26 13:11:56;;;;;;;;;;;;;;;11.38;42.97;100070.31;104058;276;105677;-55
2023/04/26 13:14:29;;;;;;;;;;;;;;;11.63;42.70;100071.28;104058;276;115095;-60
2023/04/26 13:17:01;;;;;;;;;;;;;;;11.88;42.64;100069.14;104381;276;93953;-55